Time;durP1;ratioP1;P1;durP2;ratioP2;P2;SDS_P1;SDS_P2;PMS_P1;PMS_P2;Temp;Humidity;BMP_temperature;BMP_pressure;BME280_temperature;BME280_humidity;BME280_pressure;Samples;Min_cycle;Max_cycle;Signal;HPM_P1;HPM_P2
2023/04/27 00:00:13;;;;;;;9.67;6.23;;;2.90;99.90;;;;;;5076252;28;20290;-73
2023/04/27 00:02:40;;;;;;;9.00;5.83;;;2.90;99.90;;;;;;5076016;28;20203;-73
2023/04/27 00:05:10;;;;;;;9.00;5.83;;;2.90;99.90;;;;;;5075982;28;20199;-73
2023/04/27 00:07:36;;;;;;;8.50;6.37;;;2.90;99.90;;;;;;5076150;28;20193;-73
2023/04/27 00:10:03;;;;;;;6.97;6.20;;;2.80;99.90;;;;;;5076129;28;20198;-73
2023/04/27 00:12:30;;;;;;;12.50;7.07;;;2.70;99.90;;;;;;5075985;28;20252;-73
2023/04/27 00:14:56;;;;;;;7.83;6.23;;;2.60;99.90;;;;;;5075897;28;20207;-73
2023/04/27 00:17:23;;;;;;;9.77;6.60;;;2.50;99.90;;;;;;5075747;28;20650;-73
2023/04/27 00:19:51;;;;;;;11.83;6.27;;;2.60;99.90;;;;;;5075709;28;20199;-73
2023/04/27 00:22:19;;;;;;;7.90;5.87;;;2.50;99.90;;;;;;5075891;28;20204;-73
2023/04/27 00:24:45;;;;;;;11.33;6.20;;;2.40;99.90;;;;;;5075725;28;20221;-74
2023/04/27 00:27:12;;;;;;;10.93;5.80;;;2.20;99.90;;;;;;5075731;28;20203;-73
2023/04/27 00:29:41;;;;;;;8.27;5.80;;;2.10;99.90;;;;;;5075603;28;20293;-73
2023/04/27 00:32:08;;;;;;;9.30;6.50;;;2.00;99.90;;;;;;5075500;28;20198;-74
2023/04/27 00:34:35;;;;;;;10.93;6.73;;;2.00;99.90;;;;;;5075570;28;20259;-73
2023/04/27 00:37:01;;;;;;;11.60;7.00;;;1.90;99.90;;;;;;5075665;28;20266;-74
2023/04/27 00:39:29;;;;;;;10.63;6.53;;;1.80;99.90;;;;;;5075500;28;20197;-73
2023/04/27 00:41:56;;;;;;;11.97;7.07;;;1.80;99.90;;;;;;5075455;28;20240;-73
2023/04/27 00:44:24;;;;;;;10.27;7.00;;;2.00;99.90;;;;;;5075236;28;20701;-73
2023/04/27 00:46:51;;;;;;;11.63;7.00;;;1.80;99.90;;;;;;5075216;28;20205;-73
2023/04/27 00:49:17;;;;;;;9.40;7.13;;;1.60;99.90;;;;;;5075234;28;20197;-73
2023/04/27 00:51:44;;;;;;;8.57;7.10;;;1.60;99.90;;;;;;5075336;28;20201;-73
2023/04/27 00:54:11;;;;;;;10.33;6.93;;;1.60;99.90;;;;;;5075276;28;20197;-73
2023/04/27 00:56:39;;;;;;;12.97;7.40;;;1.60;99.90;;;;;;5075196;28;20198;-74
2023/04/27 00:59:06;;;;;;;9.70;7.37;;;1.70;99.90;;;;;;5074887;28;20596;-74
2023/04/27 01:01:33;;;;;;;10.97;6.53;;;1.80;99.90;;;;;;5075246;28;20201;-74
2023/04/27 01:04:00;;;;;;;9.60;7.00;;;1.90;99.90;;;;;;5075104;28;20225;-74
2023/04/27 01:06:28;;;;;;;13.10;7.57;;;1.90;99.90;;;;;;5075019;28;20201;-73
2023/04/27 01:08:55;;;;;;;10.20;7.57;;;1.70;99.90;;;;;;5074965;28;20568;-73
2023/04/27 01:11:22;;;;;;;10.17;7.10;;;1.80;99.90;;;;;;5074874;28;20205;-73
2023/04/27 01:13:50;;;;;;;8.87;7.17;;;1.90;99.90;;;;;;5074537;28;20223;-74
2023/04/27 01:16:17;;;;;;;11.70;7.43;;;1.70;99.90;;;;;;5074876;28;20227;-74
2023/04/27 01:18:44;;;;;;;10.23;7.40;;;1.50;99.90;;;;;;5074826;28;20197;-74
2023/04/27 01:21:11;;;;;;;10.80;7.33;;;1.40;99.90;;;;;;5074847;28;20660;-74
2023/04/27 01:23:39;;;;;;;10.60;7.50;;;1.20;99.90;;;;;;5074607;28;20266;-73
2023/04/27 01:26:06;;;;;;;8.90;7.37;;;1.10;99.90;;;;;;5074517;28;20197;-73
2023/04/27 01:28:32;;;;;;;10.77;7.00;;;1.10;99.90;;;;;;5074439;28;20274;-73
2023/04/27 01:30:59;;;;;;;9.07;6.93;;;1.10;99.90;;;;;;5074662;28;20197;-73
2023/04/27 01:33:25;;;;;;;11.10;7.40;;;1.10;99.90;;;;;;5074331;28;20725;-73
2023/04/27 01:35:52;;;;;;;13.87;8.30;;;1.10;99.90;;;;;;5074233;28;20275;-73
2023/04/27 01:38:18;;;;;;;14.33;8.17;;;1.00;99.90;;;;;;5074327;28;20220;-73
2023/04/27 01:40:46;;;;;;;11.50;7.90;;;1.00;99.90;;;;;;5074822;28;20246;-73
2023/04/27 01:43:13;;;;;;;11.73;8.00;;;1.20;99.90;;;;;;5074066;28;20645;-73
2023/04/27 01:45:40;;;;;;;10.83;8.00;;;1.20;99.90;;;;;;5074425;28;20222;-73
2023/04/27 01:48:06;;;;;;;13.43;7.97;;;1.00;99.90;;;;;;5074058;28;20706;-73
2023/04/27 01:50:33;;;;;;;12.57;8.37;;;1.10;99.90;;;;;;5074191;28;20250;-73
2023/04/27 01:52:59;;;;;;;13.90;9.03;;;0.90;99.90;;;;;;5074150;28;20250;-73
2023/04/27 01:55:26;;;;;;;11.90;8.67;;;0.90;99.90;;;;;;5073887;28;20201;-73
2023/04/27 01:57:54;;;;;;;15.43;8.27;;;0.80;99.90;;;;;;5074096;28;20201;-73
2023/04/27 02:00:21;;;;;;;10.13;7.83;;;0.90;99.90;;;;;;5073184;28;20661;-73
2023/04/27 02:02:49;;;;;;;10.63;8.10;;;0.90;99.90;;;;;;5073942;28;20200;-73
2023/04/27 02:05:16;;;;;;;10.87;7.90;;;0.80;99.90;;;;;;5073644;28;20562;-73
2023/04/27 02:07:43;;;;;;;14.00;8.90;;;0.80;99.90;;;;;;5073832;28;20227;-73
2023/04/27 02:10:10;;;;;;;13.20;8.53;;;0.70;99.90;;;;;;5073637;28;20197;-73
2023/04/27 02:12:37;;;;;;;15.20;9.90;;;0.70;99.90;;;;;;5073856;28;20226;-73
2023/04/27 02:15:06;;;;;;;14.30;7.93;;;0.70;99.90;;;;;;5073720;28;20262;-73
2023/04/27 02:17:34;;;;;;;9.90;7.67;;;0.80;99.90;;;;;;5073676;28;20246;-73
2023/04/27 02:20:01;;;;;;;12.20;8.53;;;0.70;99.90;;;;;;5073560;28;20212;-73
2023/04/27 02:22:27;;;;;;;10.27;7.83;;;0.70;99.90;;;;;;5073460;28;20201;-73
2023/04/27 02:24:54;;;;;;;10.43;8.20;;;0.70;99.90;;;;;;5073584;28;20228;-73
2023/04/27 02:27:21;;;;;;;11.63;8.20;;;0.70;99.90;;;;;;5073331;28;20201;-73
2023/04/27 02:29:47;;;;;;;13.93;9.07;;;0.50;99.90;;;;;;5073450;28;20246;-73
2023/04/27 02:32:15;;;;;;;11.13;8.77;;;0.60;99.90;;;;;;5073364;28;20197;-73
2023/04/27 02:34:42;;;;;;;10.83;8.77;;;0.50;99.90;;;;;;5073063;28;20197;-73
2023/04/27 02:37:08;;;;;;;12.93;9.10;;;0.40;99.90;;;;;;5073161;28;20664;-74
2023/04/27 02:39:35;;;;;;;10.27;8.17;;;0.40;99.90;;;;;;5073098;28;20263;-73
2023/04/27 02:42:02;;;;;;;16.47;8.83;;;0.30;99.90;;;;;;5073330;28;20251;-73
2023/04/27 02:44:29;;;;;;;11.90;8.77;;;0.50;99.90;;;;;;5073151;28;20229;-73
2023/04/27 02:46:56;;;;;;;11.23;8.40;;;0.60;99.90;;;;;;5073116;28;20246;-73
2023/04/27 02:49:24;;;;;;;13.83;7.70;;;0.40;99.90;;;;;;5073110;28;20204;-73
2023/04/27 02:51:50;;;;;;;12.60;9.00;;;0.40;99.90;;;;;;5072939;28;20296;-74
2023/04/27 02:54:17;;;;;;;13.57;8.53;;;0.30;99.90;;;;;;5073145;28;20611;-73
2023/04/27 02:56:43;;;;;;;10.80;8.30;;;0.20;99.90;;;;;;5073096;28;20274;-73
2023/04/27 02:59:10;;;;;;;11.63;8.90;;;0.20;99.90;;;;;;5072957;28;20201;-74
2023/04/27 03:01:37;;;;;;;11.80;8.57;;;0.20;99.90;;;;;;5072774;28;20724;-73
2023/04/27 03:04:03;;;;;;;12.67;8.87;;;0.40;99.90;;;;;;5072788;28;20217;-73
2023/04/27 03:06:31;;;;;;;12.07;8.60;;;0.20;99.90;;;;;;5073053;28;20200;-73
2023/04/27 03:08:58;;;;;;;13.77;9.10;;;0.20;99.90;;;;;;5072991;28;20201;-74
2023/04/27 03:11:25;;;;;;;17.53;9.37;;;0.20;99.90;;;;;;5072700;28;20660;-74
2023/04/27 03:13:51;;;;;;;16.47;9.43;;;0.10;99.90;;;;;;5072796;28;20201;-73
2023/04/27 03:16:18;;;;;;;14.57;9.60;;;0.10;99.90;;;;;;5072745;28;20541;-74
2023/04/27 03:18:44;;;;;;;13.13;9.57;;;0.10;99.90;;;;;;5072623;28;20204;-74
2023/04/27 03:21:12;;;;;;;12.73;9.57;;;0.10;99.90;;;;;;5072670;28;20666;-74
2023/04/27 03:23:40;;;;;;;13.33;9.23;;;0.10;99.90;;;;;;5072751;28;20254;-74
2023/04/27 03:26:07;;;;;;;15.93;10.20;;;0.10;99.90;;;;;;5072736;28;20197;-74
2023/04/27 03:28:34;;;;;;;13.10;9.60;;;0.10;99.90;;;;;;5072729;28;20201;-74
2023/04/27 03:31:01;;;;;;;12.57;8.97;;;0.10;99.90;;;;;;5072625;28;20193;-74
2023/04/27 03:33:28;;;;;;;15.67;9.37;;;0.10;99.90;;;;;;5072532;28;20197;-74
2023/04/27 03:35:55;;;;;;;18.37;9.40;;;0.10;99.90;;;;;;5072465;28;20229;-74
2023/04/27 03:38:22;;;;;;;15.30;9.47;;;0.20;99.90;;;;;;5072566;28;20207;-74
2023/04/27 03:40:50;;;;;;;13.93;9.53;;;0.30;99.90;;;;;;5072532;28;20197;-74
2023/04/27 03:43:17;;;;;;;11.50;9.07;;;0.20;99.90;;;;;;5072526;28;20254;-74
2023/04/27 03:45:43;;;;;;;20.40;9.57;;;0.20;99.90;;;;;;5072287;28;20758;-74
2023/04/27 03:48:10;;;;;;;18.57;10.07;;;0.20;99.90;;;;;;5072302;28;20197;-74
2023/04/27 03:50:37;;;;;;;11.33;8.57;;;0.30;99.90;;;;;;5072352;28;20730;-74
2023/04/27 03:53:03;;;;;;;12.97;8.90;;;0.30;99.90;;;;;;5072317;28;20197;-74
2023/04/27 03:55:31;;;;;;;13.63;8.63;;;0.30;99.90;;;;;;5072370;28;20198;-73
2023/04/27 03:57:59;;;;;;;12.27;8.30;;;0.20;99.90;;;;;;5072262;28;20283;-73
2023/04/27 04:00:26;;;;;;;12.87;9.17;;;0.20;99.90;;;;;;5072195;28;20243;-73
2023/04/27 04:02:52;;;;;;;11.17;9.00;;;0.20;99.90;;;;;;5072135;28;20254;-73
2023/04/27 04:05:19;;;;;;;15.57;10.07;;;0.10;99.90;;;;;;5072234;28;20232;-73
2023/04/27 04:07:46;;;;;;;13.13;8.97;;;0.10;99.90;;;;;;5072325;28;20201;-73
2023/04/27 04:10:13;;;;;;;13.60;9.80;;;0.10;99.90;;;;;;5072395;28;20242;-73
2023/04/27 04:12:39;;;;;;;13.57;9.13;;;0.20;99.90;;;;;;5072199;28;20201;-73
2023/04/27 04:15:08;;;;;;;14.30;9.97;;;0.30;99.90;;;;;;5072147;28;20201;-73
2023/04/27 04:17:35;;;;;;;15.73;9.63;;;0.40;99.90;;;;;;5072308;28;20201;-73
2023/04/27 04:20:03;;;;;;;10.73;9.37;;;0.30;99.90;;;;;;5072416;28;20603;-73
2023/04/27 04:22:29;;;;;;;13.57;9.07;;;0.30;99.90;;;;;;5072494;28;20590;-73
2023/04/27 04:24:56;;;;;;;17.07;10.47;;;0.30;99.90;;;;;;5075705;28;20228;-73
2023/04/27 04:27:23;;;;;;;13.97;9.53;;;0.50;99.90;;;;;;5075677;28;20212;-73
2023/04/27 04:29:49;;;;;;;14.13;9.90;;;0.60;99.90;;;;;;5075483;28;20200;-73
2023/04/27 04:32:18;;;;;;;14.70;10.10;;;0.80;99.90;;;;;;5075674;28;20204;-73
2023/04/27 04:34:49;;;;;;;16.50;9.70;;;0.80;99.90;;;;;;5075476;28;20224;-73
2023/04/27 04:37:17;;;;;;;14.57;9.47;;;0.80;99.90;;;;;;5075421;28;20235;-74
2023/04/27 04:39:43;;;;;;;14.93;9.57;;;0.80;99.90;;;;;;5075485;28;20228;-72
2023/04/27 04:42:11;;;;;;;12.57;9.63;;;0.90;99.90;;;;;;5075324;28;20197;-72
2023/04/27 04:44:38;;;;;;;11.20;9.53;;;1.00;99.90;;;;;;5075449;28;20225;-72
2023/04/27 04:47:05;;;;;;;12.60;9.07;;;1.10;99.90;;;;;;5075429;28;20284;-73
2023/04/27 04:49:33;;;;;;;12.67;9.50;;;1.30;99.90;;;;;;5075255;28;20583;-73
2023/04/27 04:51:59;;;;;;;13.77;8.60;;;1.50;99.90;;;;;;5075299;28;20197;-72
2023/04/27 04:54:26;;;;;;;14.20;8.63;;;1.60;99.90;;;;;;5075245;28;20204;-73
2023/04/27 04:56:53;;;;;;;12.07;8.60;;;1.70;99.90;;;;;;5075068;28;20726;-73
2023/04/27 04:59:19;;;;;;;16.33;9.00;;;1.90;99.90;;;;;;5075342;28;20202;-72
2023/04/27 05:01:46;;;;;;;10.77;7.87;;;2.00;99.90;;;;;;5075142;28;20197;-73
2023/04/27 05:04:13;;;;;;;16.60;7.93;;;2.10;99.90;;;;;;5074921;28;20201;-73
2023/04/27 05:06:41;;;;;;;13.03;7.93;;;2.20;99.90;;;;;;5075002;28;20652;-73
2023/04/27 05:09:07;;;;;;;12.70;7.27;;;2.30;99.90;;;;;;5074833;28;20199;-73
2023/04/27 05:11:34;;;;;;;10.57;7.20;;;2.40;99.90;;;;;;5074980;28;20201;-73
2023/04/27 05:14:01;;;;;;;18.67;8.50;;;2.60;99.90;;;;;;5075054;28;20218;-73
2023/04/27 05:16:27;;;;;;;13.17;8.03;;;2.70;99.90;;;;;;5074906;28;20202;-73
2023/04/27 05:18:54;;;;;;;19.00;7.80;;;2.80;99.90;;;;;;5074854;28;20267;-73
2023/04/27 05:21:21;;;;;;;14.53;8.17;;;2.90;99.90;;;;;;5074718;28;20332;-73
2023/04/27 05:23:49;;;;;;;12.17;8.20;;;3.00;99.90;;;;;;5074546;28;20204;-73
2023/04/27 05:26:17;;;;;;;12.90;7.93;;;3.10;99.90;;;;;;5074573;28;20260;-73
2023/04/27 05:28:45;;;;;;;11.67;7.33;;;3.20;99.90;;;;;;5074587;28;20595;-73
2023/04/27 05:31:12;;;;;;;17.53;10.93;;;3.30;99.90;;;;;;5074594;28;20200;-75
2023/04/27 05:33:39;;;;;;;35.30;24.33;;;3.40;99.90;;;;;;5074051;28;20199;-75
2023/04/27 05:36:06;;;;;;;16.27;8.90;;;3.50;99.90;;;;;;5073383;28;20233;-74
2023/04/27 05:38:34;;;;;;;19.33;7.73;;;3.60;99.90;;;;;;5074213;28;20197;-74
2023/04/27 05:41:02;;;;;;;11.93;8.57;;;3.70;99.90;;;;;;5074051;28;20672;-74
2023/04/27 05:43:29;;;;;;;13.33;8.47;;;3.80;99.90;;;;;;5074349;28;20251;-74
2023/04/27 05:45:55;;;;;;;11.50;8.17;;;3.90;99.90;;;;;;5073969;28;20227;-73
2023/04/27 05:48:22;;;;;;;13.47;8.27;;;4.00;99.90;;;;;;5074080;28;20254;-75
2023/04/27 05:50:49;;;;;;;11.60;7.47;;;4.20;99.90;;;;;;5073861;28;20648;-74
2023/04/27 05:53:16;;;;;;;17.60;8.10;;;4.30;99.90;;;;;;5073847;28;20193;-74
2023/04/27 05:55:43;;;;;;;12.47;8.07;;;4.50;99.90;;;;;;5074090;28;20196;-75
2023/04/27 05:58:10;;;;;;;10.57;7.53;;;4.70;99.90;;;;;;5074045;28;20201;-74
2023/04/27 06:00:37;;;;;;;15.07;7.33;;;4.80;99.90;;;;;;5073794;28;20201;-73
2023/04/27 06:03:04;;;;;;;12.77;8.03;;;4.90;99.90;;;;;;5073889;28;20201;-76
2023/04/27 06:05:30;;;;;;;14.20;7.80;;;5.10;99.90;;;;;;5073640;28;20224;-75
2023/04/27 06:07:57;;;;;;;12.23;8.77;;;5.20;99.90;;;;;;5073889;28;20201;-74
2023/04/27 06:10:24;;;;;;;14.77;8.63;;;5.30;99.90;;;;;;5073849;28;20247;-75
2023/04/27 06:12:50;;;;;;;18.33;10.60;;;5.50;99.90;;;;;;5073676;28;20777;-74
2023/04/27 06:15:18;;;;;;;16.53;9.00;;;5.70;99.90;;;;;;5073552;28;20258;-73
2023/04/27 06:17:45;;;;;;;14.53;9.00;;;5.90;99.90;;;;;;5073544;28;20242;-75
2023/04/27 06:20:12;;;;;;;13.17;8.47;;;6.00;99.90;;;;;;5073471;28;20200;-74
2023/04/27 06:22:39;;;;;;;13.70;8.63;;;6.10;99.90;;;;;;5073709;28;20201;-74
2023/04/27 06:25:06;;;;;;;14.00;8.53;;;6.20;99.90;;;;;;5073547;28;20224;-74
2023/04/27 06:27:33;;;;;;;12.73;8.70;;;6.20;99.90;;;;;;5073476;28;20197;-73
2023/04/27 06:30:00;;;;;;;10.13;7.90;;;6.30;99.90;;;;;;5073279;28;20195;-74
2023/04/27 06:32:28;;;;;;;14.50;8.30;;;6.50;99.90;;;;;;5073253;28;20283;-74
2023/04/27 06:34:55;;;;;;;13.87;8.23;;;6.70;99.90;;;;;;5073019;28;20232;-75
2023/04/27 06:37:22;;;;;;;15.20;8.87;;;6.70;99.90;;;;;;5073348;28;20201;-76
2023/04/27 06:39:48;;;;;;;16.20;8.47;;;6.90;99.90;;;;;;5073306;28;20193;-74
2023/04/27 06:42:15;;;;;;;14.30;8.60;;;6.90;99.90;;;;;;5073240;28;20201;-74
2023/04/27 06:44:41;;;;;;;14.50;7.97;;;7.10;99.90;;;;;;5073004;28;20201;-76
2023/04/27 06:47:08;;;;;;;16.43;8.37;;;7.20;99.90;;;;;;5072760;28;20201;-75
2023/04/27 06:49:36;;;;;;;12.87;8.23;;;7.30;99.90;;;;;;5073244;28;20196;-75
2023/04/27 06:52:03;;;;;;;14.60;8.30;;;7.60;99.90;;;;;;5073202;28;20201;-73
2023/04/27 06:54:29;;;;;;;11.10;7.80;;;7.80;99.90;;;;;;5073100;28;20250;-74
2023/04/27 06:56:56;;;;;;;9.37;7.67;;;7.90;99.90;;;;;;5072989;28;20205;-74
2023/04/27 06:59:23;;;;;;;15.43;8.17;;;8.10;99.90;;;;;;5072980;28;20509;-74
2023/04/27 07:01:50;;;;;;;11.27;7.83;;;8.30;99.90;;;;;;5072831;28;20382;-74
2023/04/27 07:04:17;;;;;;;11.00;7.63;;;8.40;99.90;;;;;;5073041;28;20200;-75
2023/04/27 07:06:45;;;;;;;9.97;7.43;;;8.50;99.90;;;;;;5072740;28;20615;-75
2023/04/27 07:09:11;;;;;;;11.57;7.83;;;8.80;99.90;;;;;;5072863;28;20201;-75
2023/04/27 07:11:38;;;;;;;8.47;7.30;;;8.90;99.90;;;;;;5072791;28;20193;-74
2023/04/27 07:14:05;;;;;;;15.27;7.80;;;9.00;99.90;;;;;;5072830;28;20197;-74
2023/04/27 07:16:32;;;;;;;8.93;7.20;;;8.80;99.90;;;;;;5072706;28;20660;-74
2023/04/27 07:18:58;;;;;;;11.40;8.00;;;9.00;99.90;;;;;;5072635;28;20653;-75
2023/04/27 07:21:25;;;;;;;11.70;7.40;;;9.30;99.90;;;;;;5072743;28;20197;-73
2023/04/27 07:23:53;;;;;;;10.83;6.90;;;9.40;99.90;;;;;;5072614;28;20573;-73
2023/04/27 07:26:22;;;;;;;11.53;7.00;;;9.60;99.90;;;;;;5072679;28;20361;-76
2023/04/27 07:28:49;;;;;;;11.33;7.13;;;9.80;99.90;;;;;;5072486;28;20608;-77
2023/04/27 07:31:16;;;;;;;11.63;7.10;;;10.00;99.90;;;;;;5072525;28;20599;-75
2023/04/27 07:33:43;;;;;;;10.03;7.43;;;10.20;99.90;;;;;;5072719;28;20253;-76
2023/04/27 07:36:10;;;;;;;11.27;7.73;;;10.40;99.90;;;;;;5072439;28;20229;-74
2023/04/27 07:38:37;;;;;;;12.00;7.37;;;10.60;99.90;;;;;;5072536;28;20197;-75
2023/04/27 07:41:06;;;;;;;13.03;7.27;;;10.80;99.90;;;;;;5072409;28;20587;-75
2023/04/27 07:43:32;;;;;;;8.43;7.13;;;11.00;99.90;;;;;;5072353;28;20197;-75
2023/04/27 07:45:59;;;;;;;9.87;6.83;;;11.30;99.90;;;;;;5072476;28;20220;-76
2023/04/27 07:48:27;;;;;;;9.83;6.50;;;11.50;99.90;;;;;;5072554;28;20200;-75
2023/04/27 07:50:54;;;;;;;9.83;6.60;;;11.80;99.90;;;;;;5072484;28;20205;-75
2023/04/27 07:53:20;;;;;;;12.63;6.73;;;11.80;99.90;;;;;;5072449;28;20203;-75
2023/04/27 07:55:47;;;;;;;10.17;6.67;;;11.60;99.90;;;;;;5072525;28;20209;-75
2023/04/27 07:58:15;;;;;;;9.83;6.87;;;11.80;99.90;;;;;;5073991;28;20200;-73
2023/04/27 08:00:42;;;;;;;13.00;6.13;;;12.40;99.90;;;;;;5076515;28;20208;-75
2023/04/27 08:03:08;;;;;;;10.70;6.57;;;12.80;99.90;;;;;;5076436;28;20242;-74
2023/04/27 08:05:35;;;;;;;12.18;7.57;;;12.90;99.90;;;;;;5076046;28;20225;-74
2023/04/27 08:08:01;;;;;;;18.77;7.03;;;13.30;99.90;;;;;;5076127;28;20276;-75
2023/04/27 08:10:28;;;;;;;9.48;6.45;;;13.80;99.90;;;;;;5075813;28;20251;-75
2023/04/27 08:12:55;;;;;;;9.27;6.32;;;14.00;99.90;;;;;;5076119;28;20306;-74
2023/04/27 08:15:23;;;;;;;9.98;5.82;;;14.00;99.00;;;;;;5075984;28;20205;-75
2023/04/27 08:17:49;;;;;;;11.25;5.50;;;14.30;97.70;;;;;;5075908;28;20599;-74
2023/04/27 08:20:16;;;;;;;8.13;5.30;;;14.30;97.90;;;;;;5075920;28;20197;-75
2023/04/27 08:22:43;;;;;;;6.65;5.45;;;14.40;95.20;;;;;;5075789;28;20607;-75
2023/04/27 08:25:10;;;;;;;12.68;5.47;;;14.60;91.60;;;;;;5076096;28;20197;-75
2023/04/27 08:27:37;;;;;;;7.63;5.20;;;14.40;89.80;;;;;;5075874;28;20193;-74
2023/04/27 08:30:04;;;;;;;7.93;5.57;;;14.10;90.50;;;;;;5075786;28;20227;-74
2023/04/27 08:32:33;;;;;;;9.88;5.13;;;14.00;88.00;;;;;;5075661;28;20209;-74
2023/04/27 08:34:59;;;;;;;9.20;4.90;;;14.00;84.40;;;;;;5075352;28;20233;-74
2023/04/27 08:37:26;;;;;;;9.23;5.05;;;14.10;89.10;;;;;;5075468;28;20472;-75
2023/04/27 08:39:53;;;;;;;9.88;5.32;;;14.10;88.20;;;;;;5075387;28;20200;-75
2023/04/27 08:42:19;;;;;;;6.22;4.68;;;14.10;85.20;;;;;;5075616;28;20197;-73
2023/04/27 08:44:46;;;;;;;6.07;4.88;;;14.50;85.80;;;;;;5075450;28;20223;-75
2023/04/27 08:47:12;;;;;;;6.55;4.50;;;14.40;77.90;;;;;;5075490;28;20263;-75
2023/04/27 08:49:41;;;;;;;6.45;4.63;;;14.20;77.40;;;;;;5075369;28;20564;-75
2023/04/27 08:52:11;;;;;;;7.78;4.95;;;14.70;76.90;;;;;;5075160;28;20193;-74
2023/04/27 08:54:38;;;;;;;8.35;4.97;;;14.70;73.40;;;;;;5075390;28;20203;-75
2023/04/27 08:57:09;;;;;;;6.50;4.68;;;15.00;75.60;;;;;;5075301;28;20207;-75
2023/04/27 08:59:36;;;;;;;7.10;4.78;;;15.10;73.60;;;;;;5075152;28;20208;-75
2023/04/27 09:02:04;;;;;;;6.70;4.35;;;15.40;74.20;;;;;;5074902;28;20661;-75
2023/04/27 09:04:37;;;;;;;6.95;4.82;;;15.50;68.90;;;;;;5074885;28;20236;-74
2023/04/27 09:07:12;;;;;;;6.18;4.25;;;14.80;62.70;;;;;;5075032;28;20239;-74
2023/04/27 09:09:38;;;;;;;6.07;4.13;;;15.20;64.10;;;;;;5075010;28;20607;-76
2023/04/27 09:12:14;;;;;;;5.07;4.13;;;15.40;63.70;;;;;;5074987;28;20270;-75
2023/04/27 09:14:41;;;;;;;8.25;4.55;;;16.00;64.10;;;;;;5074854;28;20193;-74
2023/04/27 09:17:08;;;;;;;8.35;4.43;;;16.10;60.90;;;;;;5074570;28;20196;-75
2023/04/27 09:19:35;;;;;;;6.15;5.28;;;15.90;59.60;;;;;;5074796;28;20197;-75
2023/04/27 09:22:07;;;;;;;6.05;4.93;;;15.60;58.20;;;;;;5074847;28;20201;-75
2023/04/27 09:24:35;;;;;;;8.20;4.90;;;15.60;58.10;;;;;;5074603;28;20203;-74
2023/04/27 09:27:03;;;;;;;9.35;5.00;;;16.10;59.40;;;;;;5074601;28;20236;-73
2023/04/27 09:29:34;;;;;;;8.00;5.10;;;15.80;56.50;;;;;;5074392;28;20197;-75
2023/04/27 09:32:00;;;;;;;6.03;4.53;;;15.70;57.70;;;;;;5074469;28;20219;-76
2023/04/27 09:34:37;;;;;;;6.15;4.47;;;15.80;55.90;;;;;;5074372;28;20193;-75
2023/04/27 09:37:04;;;;;;;6.28;4.60;;;16.50;56.00;;;;;;5074431;28;20660;-75
2023/04/27 09:39:31;;;;;;;9.20;4.75;;;17.30;54.10;;;;;;5074234;28;20215;-75
2023/04/27 09:41:59;;;;;;;6.18;4.50;;;17.50;53.10;;;;;;5074269;28;20608;-75
2023/04/27 09:44:28;;;;;;;7.30;4.40;;;17.60;52.60;;;;;;5074171;28;20201;-75
2023/04/27 09:46:57;;;;;;;6.30;5.22;;;18.50;52.40;;;;;;5073996;28;20744;-75
2023/04/27 09:49:26;;;;;;;6.30;4.95;;;17.90;46.70;;;;;;5074275;28;20193;-75
2023/04/27 09:51:54;;;;;;;6.00;5.00;;;17.70;46.40;;;;;;5074189;28;20266;-74
2023/04/27 09:54:24;;;;;;;10.85;5.03;;;16.30;47.60;;;;;;5073990;28;20551;-75
2023/04/27 09:57:00;;;;;;;7.82;4.57;;;16.40;48.30;;;;;;5073856;28;20254;-75
2023/04/27 09:59:41;;;;;;;7.45;4.97;;;17.40;47.70;;;;;;5074110;28;20197;-74
2023/04/27 10:02:11;;;;;;;5.45;4.72;;;17.60;47.10;;;;;;5073982;28;20197;-73
2023/04/27 10:04:52;;;;;;;5.80;4.18;;;17.40;46.10;;;;;;5073773;28;20197;-75
2023/04/27 10:07:20;;;;;;;7.55;4.40;;;18.00;45.70;;;;;;5073556;28;20225;-75
2023/04/27 10:09:48;;;;;;;5.75;4.05;;;19.10;45.90;;;;;;5073784;28;20207;-75
2023/04/27 10:12:17;;;;;;;6.57;4.50;;;19.60;45.20;;;;;;5073697;28;20201;-75
2023/04/27 10:14:55;;;;;;;6.80;4.47;;;19.30;41.60;;;;;;5073519;28;20197;-75
2023/04/27 10:17:25;;;;;;;4.93;4.18;;;19.80;42.80;;;;;;5073409;28;20670;-75
2023/04/27 10:19:54;;;;;;;5.78;4.18;;;21.10;40.80;;;;;;5073310;28;20287;-74
2023/04/27 10:22:21;;;;;;;4.63;3.83;;;21.30;37.10;;;;;;5073420;28;20200;-75
2023/04/27 10:24:50;;;;;;;5.75;3.97;;;20.80;36.00;;;;;;5073573;28;20212;-75
2023/04/27 10:27:18;;;;;;;8.52;4.00;;;19.90;37.70;;;;;;5073424;28;20386;-75
2023/04/27 10:29:46;;;;;;;7.25;4.43;;;19.30;36.40;;;;;;5073420;28;20194;-74
2023/04/27 10:32:23;;;;;;;7.05;4.40;;;18.90;35.80;;;;;;5073231;28;20200;-74
2023/04/27 10:34:51;;;;;;;4.82;4.25;;;18.10;35.00;;;;;;5073302;28;20287;-74
2023/04/27 10:37:23;;;;;;;6.90;4.10;;;17.10;37.00;;;;;;5073349;28;20201;-75
2023/04/27 10:39:50;;;;;;;6.72;4.18;;;17.40;38.30;;;;;;5073258;28;20196;-75
2023/04/27 10:42:27;;;;;;;6.63;4.65;;;18.20;38.30;;;;;;5073234;28;20242;-75
2023/04/27 10:44:56;;;;;;;5.57;4.03;;;18.30;36.70;;;;;;5073104;28;20196;-75
2023/04/27 10:47:24;;;;;;;6.93;4.00;;;18.30;36.80;;;;;;5073127;28;20256;-75
2023/04/27 10:49:52;;;;;;;6.03;3.90;;;18.00;36.60;;;;;;5073173;28;20201;-75
2023/04/27 10:52:19;;;;;;;5.20;4.00;;;17.30;37.50;;;;;;5073124;28;20201;-75
2023/04/27 10:54:46;;;;;;;5.35;3.53;;;17.10;37.70;;;;;;5075571;28;20201;-76
2023/04/27 10:57:13;;;;;;;8.02;4.10;;;17.70;38.10;;;;;;5073376;28;20200;-75
2023/04/27 10:59:49;;;;;;;5.80;4.20;;;17.40;36.40;;;;;;5072993;28;20197;-74
2023/04/27 11:02:16;;;;;;;4.45;4.05;;;17.50;37.90;;;;;;5072961;28;20275;-74
2023/04/27 11:04:44;;;;;;;6.00;4.15;;;17.70;37.30;;;;;;5072859;28;20201;-74
2023/04/27 11:07:11;;;;;;;5.65;4.03;;;17.90;37.50;;;;;;5072519;28;20274;-75
2023/04/27 11:09:38;;;;;;;7.53;4.10;;;19.00;36.10;;;;;;5072663;28;20611;-75
2023/04/27 11:12:07;;;;;;;5.53;3.90;;;19.40;35.30;;;;;;5072815;28;20201;-75
2023/04/27 11:14:35;;;;;;;5.78;4.18;;;18.60;36.00;;;;;;5073009;28;20203;-75
2023/04/27 11:17:03;;;;;;;4.90;3.92;;;18.70;36.30;;;;;;5072661;28;20839;-75
2023/04/27 11:19:30;;;;;;;5.53;3.50;;;20.30;36.90;;;;;;5072779;28;20197;-75
2023/04/27 11:22:04;;;;;;;6.50;3.55;;;22.00;35.60;;;;;;5072577;28;20250;-75
2023/04/27 11:24:30;;;;;;;5.15;3.40;;;23.80;32.50;;;;;;5072689;28;20722;-75
2023/04/27 11:26:57;;;;;;;5.70;3.70;;;24.60;28.80;;;;;;5072715;28;20221;-75
2023/04/27 11:29:24;;;;;;;5.80;3.70;;;24.00;26.30;;;;;;5072647;28;20196;-75
2023/04/27 11:31:52;;;;;;;5.05;4.00;;;22.30;27.10;;;;;;5072988;28;20197;-75
2023/04/27 11:34:20;;;;;;;5.57;3.80;;;20.40;27.50;;;;;;5076223;28;20284;-75
2023/04/27 11:36:56;;;;;;;8.95;4.50;;;20.60;28.50;;;;;;5076590;28;20757;-75
2023/04/27 11:39:26;;;;;;;6.72;3.90;;;20.00;28.70;;;;;;5076603;28;20704;-75
2023/04/27 11:41:53;;;;;;;4.35;3.92;;;21.50;29.20;;;;;;5076696;28;20204;-75
2023/04/27 11:44:25;;;;;;;5.13;3.70;;;22.30;28.40;;;;;;5076538;28;20192;-76
2023/04/27 11:46:53;;;;;;;4.60;3.75;;;23.80;27.90;;;;;;5076520;28;20232;-75
2023/04/27 11:49:19;;;;;;;5.82;4.25;;;23.00;26.80;;;;;;5076440;28;20192;-75
2023/04/27 11:51:47;;;;;;;5.97;4.07;;;23.20;26.60;;;;;;5076574;28;20197;-75
2023/04/27 11:54:14;;;;;;;6.22;4.40;;;21.90;26.80;;;;;;5076665;28;20197;-75
2023/04/27 11:56:43;;;;;;;5.90;4.20;;;21.30;27.00;;;;;;5076542;28;20215;-75
2023/04/27 11:59:19;;;;;;;7.10;4.10;;;21.70;27.20;;;;;;5076355;28;20234;-75
2023/04/27 12:01:45;;;;;;;7.03;4.30;;;21.60;26.70;;;;;;5076145;28;20200;-74
2023/04/27 12:04:12;;;;;;;5.05;3.92;;;23.10;26.60;;;;;;5076062;28;20830;-75
2023/04/27 12:06:39;;;;;;;5.57;4.43;;;23.40;26.10;;;;;;5076134;28;20217;-74
2023/04/27 12:09:05;;;;;;;6.15;4.30;;;23.30;25.90;;;;;;5076084;28;20201;-74
2023/04/27 12:11:33;;;;;;;6.43;4.15;;;23.90;26.00;;;;;;5075846;28;20228;-74
2023/04/27 12:14:01;;;;;;;7.85;4.70;;;23.60;25.50;;;;;;5075828;28;20193;-74
2023/04/27 12:16:28;;;;;;;5.03;4.20;;;23.00;25.70;;;;;;5075749;28;20656;-73
2023/04/27 12:18:55;;;;;;;5.88;4.18;;;23.20;25.60;;;;;;5075877;28;20194;-75
2023/04/27 12:21:21;;;;;;;4.72;4.25;;;24.00;25.40;;;;;;5075942;28;20193;-74
2023/04/27 12:23:48;;;;;;;6.00;4.10;;;25.00;25.10;;;;;;5075775;28;20541;-75
2023/04/27 12:26:14;;;;;;;8.20;4.45;;;24.60;24.40;;;;;;5075758;28;20193;-73
2023/04/27 12:28:41;;;;;;;5.68;4.30;;;23.80;24.50;;;;;;5075359;28;20225;-74
2023/04/27 12:31:13;;;;;;;5.90;4.13;;;22.10;25.10;;;;;;5075560;28;20197;-74
2023/04/27 12:33:40;;;;;;;6.07;4.75;;;22.20;26.10;;;;;;5075778;28;20197;-74
2023/04/27 12:36:07;;;;;;;5.40;4.50;;;21.20;26.30;;;;;;5075489;28;20225;-74
2023/04/27 12:38:34;;;;;;;9.18;4.38;;;21.00;26.70;;;;;;5075283;28;20545;-74
2023/04/27 12:41:01;;;;;;;6.20;5.20;;;21.00;27.20;;;;;;5075257;28;20197;-74
2023/04/27 12:43:28;;;;;;;5.75;4.75;;;20.20;27.40;;;;;;5074671;28;20607;-73
2023/04/27 12:45:55;;;;;;;5.55;4.43;;;19.30;27.40;;;;;;5075245;28;20717;-74
2023/04/27 12:48:23;;;;;;;6.63;5.30;;;19.80;28.40;;;;;;5075218;28;20221;-74